createdAt,value
2023-01-18T00:01:14.034Z,0.90
2023-01-18T00:03:42.526Z,1.07
2023-01-18T00:06:11.061Z,0.60
2023-01-18T00:08:39.811Z,0.50
2023-01-18T00:11:11.212Z,0.87
2023-01-18T00:13:38.987Z,1.03
2023-01-18T00:16:08.035Z,1.10
2023-01-18T00:18:36.808Z,0.70
2023-01-18T00:21:05.306Z,0.70
2023-01-18T00:23:33.234Z,0.70
2023-01-18T00:26:01.328Z,0.80
2023-01-18T00:28:30.451Z,0.70
2023-01-18T00:30:58.276Z,0.70
2023-01-18T00:33:26.686Z,0.53
2023-01-18T00:35:58.336Z,0.47
2023-01-18T00:38:26.482Z,0.80
2023-01-18T00:40:54.740Z,0.87
2023-01-18T00:43:39.928Z,0.77
2023-01-18T00:46:09.807Z,0.80
2023-01-18T00:48:39.051Z,0.70
2023-01-18T00:51:07.320Z,0.63
2023-01-18T00:53:35.216Z,0.70
2023-01-18T00:56:05.848Z,0.70
2023-01-18T00:58:33.622Z,0.70
2023-01-18T01:01:01.501Z,0.90
2023-01-18T01:03:51.588Z,0.83
2023-01-18T01:06:39.490Z,0.80
2023-01-18T01:09:07.243Z,0.77
2023-01-18T01:11:34.904Z,0.83
2023-01-18T01:14:20.061Z,1.00
2023-01-18T01:17:07.009Z,0.70
2023-01-18T01:19:53.601Z,0.70
2023-01-18T01:22:38.824Z,0.73
2023-01-18T01:25:24.641Z,1.07
2023-01-18T01:27:53.007Z,0.87
2023-01-18T01:30:20.776Z,0.87
2023-01-18T01:32:48.594Z,0.63
2023-01-18T01:35:17.742Z,0.90
2023-01-18T01:37:45.468Z,0.90
2023-01-18T01:40:13.723Z,0.80
2023-01-18T01:42:44.401Z,0.70
2023-01-18T01:45:13.063Z,0.90
2023-01-18T01:47:41.649Z,0.70
2023-01-18T01:50:12.612Z,0.70
2023-01-18T01:52:42.881Z,1.10
2023-01-18T01:55:13.503Z,0.90
2023-01-18T01:57:43.857Z,0.77
2023-01-18T02:00:13.012Z,0.53
2023-01-18T02:02:42.079Z,0.77
2023-01-18T02:05:11.265Z,0.90
2023-01-18T02:07:39.180Z,0.97
2023-01-18T02:10:09.737Z,0.83
2023-01-18T02:12:38.260Z,1.00
2023-01-18T02:15:06.717Z,1.23
2023-01-18T02:17:47.468Z,0.80
2023-01-18T02:20:26.943Z,1.53
2023-01-18T02:23:05.115Z,1.07
2023-01-18T02:25:47.704Z,1.30
2023-01-18T02:28:18.202Z,0.97
2023-01-18T02:30:49.150Z,0.60
2023-01-18T02:33:19.637Z,0.70
2023-01-18T02:35:49.787Z,0.70
2023-01-18T02:38:18.744Z,0.70
2023-01-18T02:40:59.221Z,1.00
2023-01-18T02:43:46.556Z,1.03
2023-01-18T02:46:34.819Z,0.90
2023-01-18T02:49:04.394Z,0.77
2023-01-18T02:51:32.150Z,0.80
2023-01-18T02:54:00.034Z,0.90
2023-01-18T02:56:31.137Z,0.60
2023-01-18T02:59:05.404Z,0.73
2023-01-18T03:01:34.928Z,0.67
2023-01-18T03:04:05.336Z,0.70
2023-01-18T03:06:34.611Z,0.80
2023-01-18T03:09:03.132Z,1.47
2023-01-18T03:11:35.947Z,0.70
2023-01-18T03:14:10.947Z,0.50
2023-01-18T03:16:42.157Z,0.80
2023-01-18T03:19:30.538Z,1.00
2023-01-18T03:22:01.115Z,0.90
2023-01-18T03:24:29.931Z,0.73
2023-01-18T03:27:17.811Z,1.13
2023-01-18T03:30:04.544Z,0.87
2023-01-18T03:32:52.326Z,0.80
2023-01-18T03:35:26.904Z,0.90
2023-01-18T03:37:56.092Z,0.70
2023-01-18T03:40:25.441Z,0.87
2023-01-18T03:42:55.412Z,1.30
2023-01-18T03:45:26.471Z,0.77
2023-01-18T03:47:54.976Z,1.00
2023-01-18T03:50:25.182Z,1.00
2023-01-18T03:52:57.329Z,1.13
2023-01-18T03:55:27.609Z,0.97
2023-01-18T03:57:56.840Z,0.73
2023-01-18T04:00:26.449Z,0.90
2023-01-18T04:02:54.829Z,1.10
2023-01-18T04:05:22.717Z,1.27
2023-01-18T04:07:50.807Z,0.77
2023-01-18T04:10:19.203Z,1.13
2023-01-18T04:12:46.917Z,1.23
2023-01-18T04:15:14.814Z,1.20
2023-01-18T04:17:43.919Z,1.30
2023-01-18T04:20:12.268Z,1.10
2023-01-18T04:22:40.387Z,1.67
2023-01-18T04:25:08.295Z,0.80
2023-01-18T04:27:35.996Z,0.80
2023-01-18T04:30:06.405Z,1.13
2023-01-18T04:32:34.515Z,0.70
2023-01-18T04:35:03.612Z,0.80
2023-01-18T04:37:34.244Z,1.03
2023-01-18T04:40:02.083Z,1.17
2023-01-18T04:42:30.655Z,1.00
2023-01-18T04:45:02.161Z,1.20
2023-01-18T04:47:30.333Z,1.00
2023-01-18T04:49:58.600Z,1.20
2023-01-18T04:52:27.836Z,0.80
2023-01-18T04:54:55.533Z,0.90
2023-01-18T04:57:23.622Z,1.00
2023-01-18T04:59:51.221Z,0.80
2023-01-18T05:02:18.978Z,1.00
2023-01-18T05:04:46.898Z,0.87
2023-01-18T05:07:14.718Z,0.83
2023-01-18T05:09:43.794Z,1.20
2023-01-18T05:12:12.015Z,1.33
2023-01-18T05:14:39.700Z,0.83
2023-01-18T05:17:07.388Z,0.80
2023-01-18T05:19:35.124Z,1.00
2023-01-18T05:22:03.093Z,1.00
2023-01-18T05:24:30.872Z,0.93
2023-01-18T05:27:00.315Z,1.20
2023-01-18T05:29:28.092Z,1.83
2023-01-18T05:31:55.762Z,1.17
2023-01-18T05:34:23.638Z,1.13
2023-01-18T05:36:51.348Z,1.13
2023-01-18T05:39:19.216Z,0.97
2023-01-18T05:41:47.004Z,0.90
2023-01-18T05:44:16.298Z,1.23
2023-01-18T05:46:44.427Z,1.13
2023-01-18T05:49:12.161Z,1.30
2023-01-18T05:51:39.877Z,1.13
2023-01-18T05:54:10.431Z,1.00
2023-01-18T05:56:39.829Z,0.70
2023-01-18T05:59:07.553Z,0.70
2023-01-18T06:01:36.643Z,1.93
2023-01-18T06:04:04.756Z,1.20
2023-01-18T06:06:34.841Z,1.20
2023-01-18T06:09:04.006Z,1.37
2023-01-18T06:11:31.917Z,2.10
2023-01-18T06:13:59.701Z,1.70
2023-01-18T06:16:27.695Z,1.77
2023-01-18T06:18:56.811Z,1.70
2023-01-18T06:21:25.818Z,0.90
2023-01-18T06:23:53.876Z,1.23
2023-01-18T06:26:21.593Z,0.90
2023-01-18T06:28:49.363Z,1.63
2023-01-18T06:31:17.678Z,1.20
2023-01-18T06:33:45.795Z,1.43
2023-01-18T06:36:14.892Z,1.10
2023-01-18T06:38:42.985Z,0.90
2023-01-18T06:41:10.726Z,1.03
2023-01-18T06:43:38.426Z,1.03
2023-01-18T06:46:09.789Z,1.40
2023-01-18T06:48:37.462Z,2.10
2023-01-18T06:51:05.251Z,1.80
2023-01-18T06:53:36.821Z,1.07
2023-01-18T06:56:10.201Z,1.10
2023-01-18T06:58:38.269Z,1.50
2023-01-18T07:01:06.290Z,1.33
2023-01-18T07:03:34.658Z,1.67
2023-01-18T07:06:03.568Z,0.77
2023-01-18T07:08:32.424Z,1.50
2023-01-18T07:11:05.185Z,1.80
2023-01-18T07:13:33.104Z,1.47
2023-01-18T07:16:02.174Z,1.37
2023-01-18T07:18:32.628Z,1.30
2023-01-18T07:21:01.270Z,1.03
2023-01-18T07:23:29.519Z,1.23
2023-01-18T07:26:02.419Z,1.10
2023-01-18T07:28:30.716Z,1.37
2023-01-18T07:30:58.778Z,1.10
2023-01-18T07:33:26.840Z,1.03
2023-01-18T07:35:55.102Z,1.53
2023-01-18T07:38:23.153Z,1.73
2023-01-18T07:40:51.320Z,2.53
2023-01-18T07:43:20.411Z,1.43
2023-01-18T07:45:53.799Z,1.17
2023-01-18T07:48:21.963Z,1.63
2023-01-18T07:50:55.069Z,1.10
2023-01-18T07:53:23.272Z,1.00
2023-01-18T07:55:51.554Z,1.30
2023-01-18T07:58:22.064Z,1.40
2023-01-18T08:00:51.286Z,1.30
2023-01-18T08:03:19.963Z,1.77
2023-01-18T08:05:47.707Z,1.30
2023-01-18T08:08:16.062Z,1.03
2023-01-18T08:10:44.503Z,1.60
2023-01-18T08:13:12.772Z,1.20
2023-01-18T08:15:42.194Z,1.90
2023-01-18T08:18:09.932Z,1.20
2023-01-18T08:20:38.102Z,0.90
2023-01-18T08:23:06.218Z,1.30
2023-01-18T08:25:34.021Z,0.80
2023-01-18T08:28:04.013Z,1.27
2023-01-18T08:30:33.197Z,1.17
2023-01-18T08:33:03.022Z,0.90
2023-01-18T08:35:31.596Z,0.83
2023-01-18T08:38:00.372Z,1.73
2023-01-18T08:40:28.565Z,1.67
2023-01-18T08:42:57.910Z,1.00
2023-01-18T08:45:26.363Z,1.47
2023-01-18T08:47:57.598Z,1.53
2023-01-18T08:50:27.180Z,1.00
2023-01-18T08:52:55.270Z,1.20
2023-01-18T08:55:23.819Z,1.10
2023-01-18T08:57:54.395Z,1.00
2023-01-18T09:00:23.992Z,1.43
2023-01-18T09:02:53.359Z,1.30
2023-01-18T09:05:21.139Z,1.20
2023-01-18T09:07:51.027Z,1.30
2023-01-18T09:10:21.495Z,1.20
2023-01-18T09:12:50.668Z,0.80
2023-01-18T09:15:19.625Z,1.10
2023-01-18T09:17:50.618Z,1.40
2023-01-18T09:20:19.228Z,1.20
2023-01-18T09:22:49.061Z,0.80
2023-01-18T09:25:18.976Z,1.40
2023-01-18T09:27:47.692Z,1.23
2023-01-18T09:30:19.003Z,1.30
2023-01-18T09:32:47.755Z,1.30
2023-01-18T09:35:18.395Z,1.20
2023-01-18T09:37:46.612Z,0.93
2023-01-18T09:40:19.986Z,1.57
2023-01-18T09:42:49.156Z,1.10
2023-01-18T09:45:29.156Z,1.30
2023-01-18T09:48:01.362Z,1.50
2023-01-18T09:50:29.668Z,1.27
2023-01-18T09:53:00.315Z,1.17
2023-01-18T09:55:34.579Z,1.07
2023-01-18T09:58:10.417Z,1.40
2023-01-18T10:00:41.150Z,2.00
2023-01-18T10:03:13.726Z,1.53
2023-01-18T10:05:44.414Z,1.90
2023-01-18T10:08:15.225Z,2.50
2023-01-18T10:10:51.698Z,1.67
2023-01-18T10:13:38.027Z,1.53
2023-01-18T10:16:08.237Z,1.07
2023-01-18T10:18:39.347Z,1.37
2023-01-18T10:21:09.137Z,1.50
2023-01-18T10:23:41.652Z,1.60
2023-01-18T10:26:16.902Z,1.10
2023-01-18T10:28:49.077Z,1.30
2023-01-18T10:31:22.520Z,1.23
2023-01-18T10:33:53.144Z,1.07
2023-01-18T10:36:22.266Z,1.00
2023-01-18T10:38:51.704Z,1.97
2023-01-18T10:41:23.589Z,1.63
2023-01-18T10:43:51.878Z,1.83
2023-01-18T10:46:20.051Z,1.47
2023-01-18T10:48:48.367Z,1.77
2023-01-18T10:51:26.999Z,1.40
2023-01-18T10:53:54.822Z,1.20
2023-01-18T10:56:25.527Z,1.30
2023-01-18T10:58:55.774Z,1.60
2023-01-18T11:01:24.949Z,1.90
2023-01-18T11:03:54.515Z,1.30
2023-01-18T11:06:22.965Z,1.20
2023-01-18T11:08:51.031Z,1.67
2023-01-18T11:11:20.112Z,1.80
2023-01-18T11:13:51.321Z,1.57
2023-01-18T11:16:20.893Z,1.30
2023-01-18T11:18:59.644Z,1.17
2023-01-18T11:21:31.124Z,1.63
2023-01-18T11:24:01.864Z,1.60
2023-01-18T11:26:29.720Z,1.57
2023-01-18T11:29:01.738Z,1.67
2023-01-18T11:31:31.618Z,1.87
2023-01-18T11:34:00.453Z,1.70
2023-01-18T11:36:38.534Z,1.50
2023-01-18T11:39:19.102Z,1.10
2023-01-18T11:41:47.124Z,1.73
2023-01-18T11:44:20.574Z,2.10
2023-01-18T11:46:51.054Z,1.40
2023-01-18T11:49:25.949Z,1.40
2023-01-18T11:51:58.815Z,1.97
2023-01-18T11:54:28.706Z,1.30
2023-01-18T11:56:59.983Z,2.13
2023-01-18T11:59:31.074Z,1.10
2023-01-18T12:02:16.839Z,1.40
2023-01-18T12:04:51.938Z,1.40
2023-01-18T12:07:28.199Z,1.70
2023-01-18T12:09:56.976Z,1.13
2023-01-18T12:12:34.582Z,1.33
2023-01-18T12:15:14.973Z,1.43
2023-01-18T12:17:47.753Z,2.00
2023-01-18T12:20:24.026Z,1.30
2023-01-18T12:23:13.313Z,1.50
2023-01-18T12:25:45.678Z,1.20
2023-01-18T12:28:20.411Z,1.43
2023-01-18T12:30:57.767Z,1.20
2023-01-18T12:33:43.116Z,1.67
2023-01-18T12:36:35.778Z,2.03
2023-01-18T12:39:08.262Z,1.60
2023-01-18T12:41:47.829Z,1.73
2023-01-18T12:44:23.875Z,1.70
2023-01-18T12:47:01.322Z,1.77
2023-01-18T12:49:31.600Z,1.63
2023-01-18T12:52:17.584Z,2.30
2023-01-18T12:54:49.500Z,1.83
2023-01-18T12:57:17.672Z,2.43
2023-01-18T12:59:47.171Z,2.27
2023-01-18T13:02:23.437Z,1.40
2023-01-18T13:04:54.369Z,1.80
2023-01-18T13:07:26.755Z,1.47
2023-01-18T13:09:56.920Z,2.13
2023-01-18T13:12:25.226Z,1.80
2023-01-18T13:14:55.282Z,1.83
2023-01-18T13:17:28.358Z,1.83
2023-01-18T13:20:00.497Z,2.83
2023-01-18T13:22:35.270Z,2.77
2023-01-18T13:25:19.669Z,1.93
2023-01-18T13:27:57.416Z,2.20
2023-01-18T13:30:26.369Z,1.90
2023-01-18T13:32:55.874Z,1.67
2023-01-18T13:35:33.467Z,2.63
2023-01-18T13:38:02.605Z,1.90
2023-01-18T13:40:38.921Z,2.63
2023-01-18T13:43:07.230Z,1.97
2023-01-18T13:45:56.013Z,1.87
2023-01-18T13:48:41.651Z,2.80
2023-01-18T13:51:10.380Z,2.00
2023-01-18T13:53:51.260Z,2.00
2023-01-18T13:56:28.777Z,2.40
2023-01-18T13:58:57.479Z,2.43
2023-01-18T14:01:26.999Z,2.50
2023-01-18T14:03:56.562Z,2.27
2023-01-18T14:06:29.845Z,2.97
2023-01-18T14:09:00.224Z,2.50
2023-01-18T14:11:30.558Z,4.57
2023-01-18T14:14:03.453Z,3.43
2023-01-18T14:16:33.019Z,2.43
2023-01-18T14:19:12.765Z,2.37
2023-01-18T14:21:48.928Z,3.50
2023-01-18T14:24:20.814Z,2.20
2023-01-18T14:26:49.235Z,2.50
2023-01-18T14:29:19.182Z,2.00
2023-01-18T14:31:49.830Z,2.10
2023-01-18T14:34:35.631Z,2.07
2023-01-18T14:37:03.855Z,2.00
2023-01-18T14:39:33.331Z,2.10
2023-01-18T14:42:03.015Z,2.90
2023-01-18T14:44:48.616Z,2.13
2023-01-18T14:47:24.896Z,2.90
2023-01-18T14:49:55.927Z,3.07
2023-01-18T14:52:27.165Z,2.33
2023-01-18T14:54:56.137Z,2.40
2023-01-18T14:57:24.434Z,3.00
2023-01-18T14:59:53.237Z,2.43
2023-01-18T15:02:22.976Z,2.77
2023-01-18T15:04:51.187Z,2.20
2023-01-18T15:07:20.945Z,2.27
2023-01-18T15:09:48.896Z,2.73
2023-01-18T15:12:19.519Z,2.67
2023-01-18T15:14:49.822Z,1.77
2023-01-18T15:17:21.664Z,1.93
2023-01-18T15:19:52.531Z,2.70
2023-01-18T15:22:22.468Z,2.70
2023-01-18T15:24:53.190Z,3.33
2023-01-18T15:27:21.611Z,3.43
2023-01-18T15:29:50.389Z,2.60
2023-01-18T15:32:21.018Z,2.40
2023-01-18T15:34:50.414Z,2.67
2023-01-18T15:37:20.182Z,2.67
2023-01-18T15:39:56.861Z,3.67
2023-01-18T15:42:28.363Z,3.67
2023-01-18T15:44:56.951Z,3.30
2023-01-18T15:47:26.295Z,4.17
2023-01-18T15:49:55.726Z,4.07
2023-01-18T15:52:38.102Z,2.67
2023-01-18T15:55:08.691Z,2.60
2023-01-18T15:57:37.887Z,3.17
2023-01-18T16:00:06.387Z,2.53
2023-01-18T16:02:34.221Z,2.33
2023-01-18T16:05:22.555Z,2.00
2023-01-18T16:08:00.995Z,2.30
2023-01-18T16:10:34.411Z,3.40
2023-01-18T16:13:20.622Z,4.20
2023-01-18T16:16:04.630Z,3.27
2023-01-18T16:18:32.547Z,3.13
2023-01-18T16:21:03.086Z,2.27
2023-01-18T16:23:31.251Z,2.60
2023-01-18T16:26:04.086Z,3.70
2023-01-18T16:28:32.384Z,2.27
2023-01-18T16:31:03.543Z,2.50
2023-01-18T16:33:31.387Z,3.27
2023-01-18T16:35:59.461Z,3.27
2023-01-18T16:38:27.195Z,2.63
2023-01-18T16:40:56.160Z,3.40
2023-01-18T16:43:27.677Z,2.53
2023-01-18T16:45:57.570Z,3.10
2023-01-18T16:48:26.357Z,2.67
2023-01-18T16:50:55.942Z,3.17
2023-01-18T16:53:23.995Z,3.47
2023-01-18T16:55:52.265Z,3.17
2023-01-18T16:58:21.395Z,2.83
2023-01-18T17:01:03.200Z,3.10
2023-01-18T17:03:31.061Z,2.90
2023-01-18T17:05:59.059Z,2.40
2023-01-18T17:08:26.734Z,2.60
2023-01-18T17:10:55.270Z,3.40
2023-01-18T17:13:23.874Z,2.37
2023-01-18T17:15:54.362Z,3.00
2023-01-18T17:18:24.206Z,3.23
2023-01-18T17:20:51.974Z,3.23
2023-01-18T17:23:19.662Z,4.07
2023-01-18T17:25:47.868Z,3.17
2023-01-18T17:28:16.574Z,4.53
2023-01-18T17:30:45.349Z,3.73
2023-01-18T17:33:16.817Z,4.23
2023-01-18T17:35:44.442Z,3.33
2023-01-18T17:38:23.354Z,3.03
2023-01-18T17:40:52.489Z,3.73
2023-01-18T17:43:36.610Z,3.17
2023-01-18T17:46:05.295Z,3.33
2023-01-18T17:48:36.730Z,3.90
2023-01-18T17:51:06.719Z,3.47
2023-01-18T17:53:34.448Z,3.87
2023-01-18T17:56:02.072Z,3.73
2023-01-18T17:58:29.793Z,4.57
2023-01-18T18:00:57.835Z,3.37
2023-01-18T18:03:25.693Z,5.37
2023-01-18T18:05:59.658Z,3.50
2023-01-18T18:08:27.398Z,4.07
2023-01-18T18:10:56.516Z,3.70
2023-01-18T18:13:24.653Z,3.57
2023-01-18T18:15:52.397Z,3.80
2023-01-18T18:18:23.787Z,5.00
2023-01-18T18:20:52.403Z,4.50
2023-01-18T18:23:21.693Z,4.97
2023-01-18T18:25:49.390Z,3.77
2023-01-18T18:28:17.365Z,3.40
2023-01-18T18:30:46.997Z,4.33
2023-01-18T18:33:14.921Z,4.77
2023-01-18T18:35:43.069Z,4.40
2023-01-18T18:38:13.858Z,4.03
2023-01-18T18:40:43.528Z,3.40
2023-01-18T18:43:12.896Z,3.47
2023-01-18T18:45:40.794Z,4.77
2023-01-18T18:48:08.517Z,5.17
2023-01-18T18:50:36.684Z,6.27
2023-01-18T18:53:04.711Z,6.20
2023-01-18T18:55:33.208Z,5.80
2023-01-18T18:58:02.360Z,4.27
2023-01-18T19:00:30.363Z,5.67
2023-01-18T19:02:59.217Z,5.87
2023-01-18T19:05:27.056Z,5.97
2023-01-18T19:07:55.140Z,6.20
2023-01-18T19:10:27.186Z,5.27
2023-01-18T19:12:55.388Z,5.73
2023-01-18T19:15:24.703Z,5.03
2023-01-18T19:17:52.713Z,5.67
2023-01-18T19:20:20.876Z,7.40
2023-01-18T19:22:49.278Z,7.73
2023-01-18T19:25:17.104Z,8.33
2023-01-18T19:27:45.449Z,9.13
2023-01-18T19:30:19.204Z,10.67
2023-01-18T19:32:51.036Z,9.53
2023-01-18T19:35:19.274Z,7.90
2023-01-18T19:37:47.788Z,9.00
2023-01-18T19:40:16.756Z,9.33
2023-01-18T19:42:46.689Z,9.93
2023-01-18T19:45:23.161Z,7.50
2023-01-18T19:47:57.439Z,6.63
2023-01-18T19:50:25.422Z,7.27
2023-01-18T19:52:53.451Z,7.70
2023-01-18T19:55:21.860Z,7.37
2023-01-18T19:57:49.724Z,7.17
2023-01-18T20:00:21.195Z,4.60
2023-01-18T20:02:49.154Z,5.97
2023-01-18T20:05:19.453Z,4.67
2023-01-18T20:07:47.338Z,6.40
2023-01-18T20:10:16.836Z,4.37
2023-01-18T20:12:44.748Z,5.47
2023-01-18T20:15:15.665Z,5.60
2023-01-18T20:17:43.461Z,6.60
2023-01-18T20:20:16.167Z,6.13
2023-01-18T20:22:47.725Z,8.20
2023-01-18T20:25:15.693Z,6.77
2023-01-18T20:27:43.458Z,6.20
2023-01-18T20:30:11.813Z,7.10
2023-01-18T20:32:39.626Z,7.30
2023-01-18T20:35:07.590Z,6.17
2023-01-18T20:37:35.223Z,6.77
2023-01-18T20:40:04.593Z,5.80
2023-01-18T20:42:33.295Z,6.77
2023-01-18T20:45:06.163Z,7.27
2023-01-18T20:47:33.897Z,7.00
2023-01-18T20:50:01.664Z,6.90
2023-01-18T20:52:29.639Z,6.23
2023-01-18T20:54:57.669Z,5.67
2023-01-18T20:57:30.476Z,5.67
2023-01-18T20:59:58.204Z,5.83
2023-01-18T21:02:26.106Z,7.00
2023-01-18T21:04:53.889Z,5.13
2023-01-18T21:07:22.193Z,6.07
2023-01-18T21:09:50.427Z,6.77
2023-01-18T21:12:18.604Z,7.17
2023-01-18T21:14:48.775Z,7.07
2023-01-18T21:17:16.585Z,6.43
2023-01-18T21:19:47.788Z,9.40
2023-01-18T21:22:16.754Z,10.33
2023-01-18T21:24:44.530Z,10.83
2023-01-18T21:27:12.633Z,9.83
2023-01-18T21:29:40.907Z,8.97
2023-01-18T21:32:10.077Z,10.03
2023-01-18T21:34:38.540Z,11.00
2023-01-18T21:37:06.559Z,8.67
2023-01-18T21:39:34.512Z,10.67
2023-01-18T21:42:19.949Z,7.17
2023-01-18T21:45:05.876Z,7.63
2023-01-18T21:47:35.078Z,8.03
2023-01-18T21:50:18.076Z,7.33
2023-01-18T21:53:03.715Z,8.00
2023-01-18T21:55:34.218Z,9.57
2023-01-18T21:58:35.142Z,7.63
2023-01-18T22:01:10.403Z,5.97
2023-01-18T22:03:39.733Z,6.37
2023-01-18T22:06:07.016Z,5.60
2023-01-18T22:08:35.072Z,5.70
2023-01-18T22:11:02.852Z,6.40
2023-01-18T22:13:30.489Z,6.73
2023-01-18T22:16:03.792Z,6.43
2023-01-18T22:18:31.560Z,6.03
2023-01-18T22:21:01.209Z,6.93
2023-01-18T22:23:33.446Z,6.27
2023-01-18T22:26:01.154Z,6.30
2023-01-18T22:28:28.817Z,6.20
2023-01-18T22:30:58.644Z,5.00
2023-01-18T22:33:26.296Z,5.20
2023-01-18T22:35:58.315Z,6.23
2023-01-18T22:38:28.078Z,5.70
2023-01-18T22:41:02.188Z,5.67
2023-01-18T22:43:32.635Z,6.23
2023-01-18T22:46:00.893Z,5.53
2023-01-18T22:48:29.092Z,4.77
2023-01-18T22:50:57.961Z,6.20
2023-01-18T22:53:27.754Z,5.43
2023-01-18T22:55:55.762Z,5.57
2023-01-18T22:58:23.592Z,5.33
2023-01-18T23:00:51.238Z,6.57
2023-01-18T23:03:19.139Z,5.60
2023-01-18T23:05:53.854Z,5.23
2023-01-18T23:08:22.216Z,4.43
2023-01-18T23:10:56.546Z,6.50
2023-01-18T23:13:25.670Z,4.63
2023-01-18T23:16:11.028Z,5.30
2023-01-18T23:18:38.920Z,4.53
2023-01-18T23:21:07.014Z,4.27
2023-01-18T23:23:34.868Z,4.90
2023-01-18T23:26:04.004Z,6.50
2023-01-18T23:28:42.481Z,5.27
2023-01-18T23:31:10.761Z,6.43
2023-01-18T23:33:39.159Z,4.93
2023-01-18T23:36:09.718Z,4.30
2023-01-18T23:38:55.255Z,4.50
2023-01-18T23:41:42.493Z,4.77
2023-01-18T23:44:28.560Z,3.13
2023-01-18T23:47:13.815Z,4.43
2023-01-18T23:49:59.418Z,4.70
2023-01-18T23:52:44.641Z,5.00
2023-01-18T23:55:12.771Z,5.40
2023-01-18T23:57:42.162Z,5.37
